Time;durP1;ratioP1;P1;durP2;ratioP2;P2;SDS_P1;SDS_P2;PMS_P1;PMS_P2;Temp;Humidity;BMP_temperature;BMP_pressure;BME280_temperature;BME280_humidity;BME280_pressure;Samples;Min_cycle;Max_cycle;Signal;HPM_P1;HPM_P2
2022/02/05 00:00:06;;;;;;;2.13;1.60;;;;;;;-0.22;100.00;93204.06;2080939;28;20041;-82
2022/02/05 00:00:47;;;;;;;2.80;1.63;;;;;;;-0.22;100.00;93199.59;2092073;28;20017;-82
2022/02/05 00:01:52;;;;;;;3.88;2.10;;;;;;;-0.20;100.00;93205.25;2086896;28;20024;-81
2022/02/05 00:04:02;;;;;;;2.70;1.98;;;;;;;-0.21;100.00;93195.09;2089707;28;20126;-82
2022/02/05 00:05:04;;;;;;;2.25;1.60;;;;;;;-0.13;100.00;93204.59;2096070;28;20055;-82
2022/02/05 00:06:05;;;;;;;2.60;1.70;;;;;;;-0.11;100.00;93208.41;2106077;27;20023;-80
2022/02/05 00:07:08;;;;;;;3.03;1.88;;;;;;;-0.05;100.00;93209.66;2105531;28;20024;-81
2022/02/05 00:09:41;;;;;;;3.60;2.20;;;;;;;0.04;100.00;93211.31;2098464;28;20078;-82
2022/02/05 00:15:21;;;;;;;4.00;1.42;;;;;;;-0.06;100.00;93208.13;2090855;28;20666;-82
2022/02/05 00:39:43;;;;;;;1.65;1.50;;;;;;;-0.01;100.00;93239.38;2098012;28;20029;-81
2022/02/05 00:40:53;;;;;;;4.78;1.60;;;;;;;-0.13;100.00;93247.44;2095402;28;20012;-81
2022/02/05 00:42:07;;;;;;;;;;;;;;;-0.05;100.00;93249.06;2091388;28;20029;-81
2022/02/05 00:43:14;;;;;;;1.83;1.52;;;;;;;-0.12;100.00;93240.31;2091300;28;19913;-82
2022/02/05 00:44:15;;;;;;;1.73;1.58;;;;;;;-0.08;100.00;93239.25;2085471;28;20025;-81
2022/02/05 00:45:16;;;;;;;2.95;1.55;;;;;;;0.11;100.00;93245.63;2073362;28;20045;-82
2022/02/05 00:46:17;;;;;;;2.17;1.80;;;;;;;0.05;100.00;93239.91;2076634;28;20064;-82
2022/02/05 00:47:18;;;;;;;3.70;1.58;;;;;;;0.03;100.00;93241.34;2085071;28;20020;-82
2022/02/05 00:48:20;;;;;;;3.03;1.50;;;;;;;0.11;100.00;93240.38;2081254;28;20468;-82
2022/02/05 00:49:21;;;;;;;1.50;1.40;;;;;;;0.11;100.00;93243.00;2077450;28;20059;-83
2022/02/05 00:50:26;;;;;;;1.63;1.50;;;;;;;0.19;100.00;93253.31;2083054;28;20025;-83
2022/02/05 00:52:31;;;;;;;1.35;1.25;;;;;;;0.06;100.00;93265.06;2095193;28;20465;-81
2022/02/05 00:53:36;;;;;;;1.30;1.20;;;;;;;-0.05;100.00;93262.19;2097412;28;20465;-80
2022/02/05 00:54:39;;;;;;;2.47;1.30;;;;;;;-0.08;100.00;93264.78;2090284;28;20025;-83
2022/02/05 00:55:44;;;;;;;2.13;1.42;;;;;;;-0.14;100.00;93268.75;2095809;28;20475;-81
2022/02/05 00:57:46;;;;;;;1.85;1.35;;;;;;;0.11;100.00;93267.41;2102977;28;20029;-82
2022/02/05 00:58:47;;;;;;;1.73;1.52;;;;;;;-0.03;100.00;93272.38;2097135;28;20024;-80
2022/02/05 00:59:48;;;;;;;1.90;1.73;;;;;;;-0.11;100.00;93275.97;2081178;28;20108;-82
2022/02/05 01:00:49;;;;;;;2.88;1.70;;;;;;;0.16;100.00;93263.75;2097547;28;20028;-81
2022/02/05 01:01:50;;;;;;;1.70;1.60;;;;;;;0.30;100.00;93287.66;2093117;28;20059;-81
2022/02/05 01:02:51;;;;;;;1.90;1.80;;;;;;;0.18;100.00;93278.06;2097688;28;20107;-81
2022/02/05 01:03:52;;;;;;;2.13;1.70;;;;;;;0.08;100.00;93272.59;2089214;28;20024;-80
2022/02/05 01:04:53;;;;;;;2.15;1.60;;;;;;;-0.13;100.00;93276.31;2081155;28;20033;-81
2022/02/05 01:05:56;;;;;;;2.35;1.58;;;;;;;-0.29;100.00;93275.59;2088426;28;20465;-80
2022/02/05 01:06:57;;;;;;;2.35;1.75;;;;;;;-0.35;100.00;93285.63;2089112;28;20036;-81
2022/02/05 01:07:58;;;;;;;2.15;1.58;;;;;;;-0.23;100.00;93289.97;2097475;28;20867;-82
2022/02/05 01:09:04;;;;;;;2.28;1.67;;;;;;;-0.27;100.00;93284.63;2114201;28;20050;-81
2022/02/05 01:10:05;;;;;;;3.05;1.70;;;;;;;-0.36;100.00;93291.94;2115017;27;20146;-80
2022/02/05 01:11:06;;;;;;;3.30;1.67;;;;;;;-0.28;100.00;93290.25;2109409;28;20073;-81
2022/02/05 01:12:07;;;;;;;3.60;1.70;;;;;;;-0.36;100.00;93291.94;2091654;28;20017;-81
2022/02/05 01:13:11;;;;;;;4.28;1.70;;;;;;;-0.46;100.00;93295.09;2097536;28;20017;-80
2022/02/05 01:14:16;;;;;;;3.88;1.85;;;;;;;-0.44;100.00;93294.75;2106352;28;20369;-81
2022/02/05 01:15:20;;;;;;;3.28;1.80;;;;;;;-0.47;100.00;93298.09;2098575;28;20530;-81
2022/02/05 01:16:45;;;;;;;2.92;1.77;;;;;;;-0.37;100.00;93294.94;2095807;28;20017;-81
2022/02/05 01:17:48;;;;;;;5.45;2.05;;;;;;;-0.72;100.00;93295.63;2108492;27;20490;-80
2022/02/05 01:18:49;;;;;;;2.75;1.90;;;;;;;-0.62;100.00;93297.75;2106576;28;20024;-80
2022/02/05 01:22:03;;;;;;;2.97;2.00;;;;;;;-0.66;100.00;93299.56;2112897;28;20079;-81
2022/02/05 01:23:07;;;;;;;3.55;1.98;;;;;;;-0.91;100.00;93293.72;2102802;28;20034;-79
2022/02/05 01:24:12;;;;;;;5.20;2.38;;;;;;;-1.03;100.00;93297.16;2099496;28;20105;-79
2022/02/05 01:25:19;;;;;;;6.10;2.13;;;;;;;-0.90;100.00;93299.72;2095973;28;20028;-81
2022/02/05 01:27:34;;;;;;;3.35;2.20;;;;;;;-0.95;100.00;93311.22;2105877;28;20027;-81
2022/02/05 01:28:37;;;;;;;4.90;2.13;;;;;;;-0.99;100.00;93307.75;2092325;28;20032;-80
2022/02/05 01:30:03;;;;;;;3.55;2.30;;;;;;;-1.02;100.00;93308.41;2089514;28;20024;-81
2022/02/05 01:31:05;;;;;;;5.68;1.75;;;;;;;-0.84;100.00;93311.47;2103460;28;20023;-81
2022/02/05 01:32:11;;;;;;;3.25;2.03;;;;;;;-0.82;100.00;93317.91;2093117;28;20498;-80
2022/02/05 01:36:06;;;;;;;3.15;2.25;;;;;;;-1.13;100.00;93312.66;2105872;28;20024;-82
2022/02/05 01:50:21;;;;;;;2.90;2.30;;;;;;;-1.19;100.00;93333.09;2114088;28;20027;-81
2022/02/05 01:50:57;;;;;;;2.25;1.92;;;;;;;-1.23;100.00;93328.84;2092187;28;20572;-81
2022/02/05 01:54:40;;;;;;;4.82;2.30;;;;;;;-1.06;100.00;93334.56;2106205;28;20042;-80
2022/02/05 01:57:05;;;;;;;4.40;2.40;;;;;;;-0.87;100.00;93336.53;2098807;28;20091;-80
2022/02/05 01:59:22;;;;;;;2.45;1.92;;;;;;;-0.99;100.00;93326.09;2099132;28;20391;-80
2022/02/05 02:05:52;;;;;;;4.07;2.10;;;;;;;-1.02;100.00;93329.41;2109215;28;20027;-81
2022/02/05 02:12:15;;;;;;;3.05;1.83;;;;;;;-0.99;100.00;93328.72;2124559;27;20727;-81
2022/02/05 02:15:39;;;;;;;5.88;2.50;;;;;;;-0.82;100.00;93328.41;2130163;27;20348;-81
2022/02/05 02:19:22;;;;;;;6.40;2.45;;;;;;;-1.00;100.00;93327.22;2114105;28;20073;-81
2022/02/05 02:20:32;;;;;;;2.67;2.47;;;;;;;-1.18;100.00;93332.03;2114567;28;20472;-82
2022/02/05 02:21:44;;;;;;;7.80;2.50;;;;;;;-1.03;100.00;93326.03;2115790;28;20015;-80
2022/02/05 02:23:29;;;;;;;3.60;1.88;;;;;;;-1.07;100.00;93325.16;2114317;28;20024;-80
2022/02/05 02:25:18;;;;;;;3.35;2.67;;;;;;;-1.20;100.00;93315.84;2124350;27;20113;-81
2022/02/05 02:26:41;;;;;;;5.13;2.50;;;;;;;-1.03;100.00;93320.00;2116636;27;20121;-80
2022/02/05 02:28:24;;;;;;;3.35;2.13;;;;;;;-0.94;100.00;93330.34;2127205;27;20091;-82
2022/02/05 02:30:40;;;;;;;4.43;2.33;;;;;;;-1.02;100.00;93330.16;2110377;27;20114;-82
2022/02/05 02:31:42;;;;;;;5.07;2.10;;;;;;;-1.09;100.00;93330.00;2124965;27;20395;-82
2022/02/05 02:32:48;;;;;;;4.90;2.50;;;;;;;-0.99;100.00;93320.09;2104480;28;20091;-81
2022/02/05 02:33:53;;;;;;;7.43;2.78;;;;;;;-0.89;100.00;93332.72;2109705;28;20054;-82
2022/02/05 02:35:01;;;;;;;4.53;2.40;;;;;;;-0.93;100.00;93324.75;2107301;28;20024;-79
2022/02/05 02:36:09;;;;;;;5.95;2.28;;;;;;;-1.04;100.00;93329.75;2111570;28;20027;-81
2022/02/05 02:37:15;;;;;;;6.82;2.67;;;;;;;-1.17;100.00;93330.91;2101664;28;20059;-82
2022/02/05 02:38:21;;;;;;;7.07;2.80;;;;;;;-1.20;100.00;93339.44;2105034;28;20111;-81
2022/02/05 02:39:28;;;;;;;3.15;2.38;;;;;;;-1.24;100.00;93343.06;2106283;28;20052;-80
2022/02/05 02:40:39;;;;;;;7.47;3.35;;;;;;;-1.40;100.00;93340.44;2105919;28;20031;-82
2022/02/05 02:41:54;;;;;;;2.85;2.45;;;;;;;-1.32;100.00;93348.16;2115641;27;20341;-79
2022/02/05 02:43:03;;;;;;;6.45;2.88;;;;;;;-1.28;100.00;93342.97;2122321;27;20392;-81
2022/02/05 02:44:04;;;;;;;2.97;2.50;;;;;;;-1.29;100.00;93347.47;2116228;27;20024;-80
2022/02/05 02:45:06;;;;;;;4.05;2.63;;;;;;;-1.29;100.00;93341.47;2114440;28;20066;-81
2022/02/05 02:46:06;;;;;;;6.47;2.78;;;;;;;-1.43;100.00;93351.56;2107937;28;20028;-80
2022/02/05 02:47:08;;;;;;;7.80;2.53;;;;;;;-1.26;100.00;93346.03;2111686;28;20028;-83
2022/02/05 02:48:08;;;;;;;7.95;2.80;;;;;;;-1.32;100.00;93348.16;2108897;28;20472;-81
2022/02/05 02:49:14;;;;;;;4.80;2.55;;;;;;;-1.40;100.00;93353.53;2120473;27;20023;-81
2022/02/05 02:56:24;;;;;;;6.25;2.75;;;;;;;-1.39;100.00;93347.94;2110326;28;20023;-80
2022/02/05 02:57:11;;;;;;;6.55;2.42;;;;;;;-1.28;100.00;93345.59;2118963;27;20019;-81
2022/02/05 02:58:17;;;;;;;3.55;2.08;;;;;;;-1.37;100.00;93350.22;2114248;28;20530;-81
2022/02/05 03:00:22;;;;;;;6.68;2.22;;;;;;;-1.59;100.00;93346.28;2112951;27;20022;-80
2022/02/05 03:01:24;;;;;;;4.97;2.45;;;;;;;-1.72;100.00;93356.03;2115416;28;20100;-82
2022/02/05 03:02:27;;;;;;;6.60;2.70;;;;;;;-1.75;100.00;93351.47;2103822;28;20024;-82
2022/02/05 03:03:28;;;;;;;3.38;2.70;;;;;;;-1.77;100.00;93353.63;2111648;28;20020;-80
2022/02/05 03:04:30;;;;;;;5.55;2.65;;;;;;;-1.86;100.00;93351.16;2100568;28;20382;-81
2022/02/05 03:05:31;;;;;;;6.18;3.05;;;;;;;-1.70;100.00;93345.22;2101102;28;20039;-82
2022/02/05 03:06:32;;;;;;;7.57;2.70;;;;;;;-1.58;100.00;93345.97;2106582;28;20027;-80
2022/02/05 03:07:33;;;;;;;4.63;2.50;;;;;;;-1.66;100.00;93351.34;2095872;28;20418;-80
2022/02/05 03:08:34;;;;;;;3.85;2.28;;;;;;;-1.60;100.00;93356.00;2095489;28;20052;-81
2022/02/05 03:09:36;;;;;;;4.18;2.28;;;;;;;-1.58;100.00;93360.91;2095558;28;20800;-80
2022/02/05 03:10:37;;;;;;;5.97;2.58;;;;;;;-1.69;100.00;93363.22;2095676;28;20045;-81
2022/02/05 03:11:38;;;;;;;6.00;2.75;;;;;;;-1.78;100.00;93359.97;2110805;28;20023;-78
2022/02/05 03:12:39;;;;;;;5.95;3.05;;;;;;;-1.88;100.00;93355.97;2112347;28;20361;-81
2022/02/05 03:13:40;;;;;;;5.30;3.22;;;;;;;-1.93;100.00;93365.91;2108627;28;20027;-80
2022/02/05 03:14:41;;;;;;;5.15;2.67;;;;;;;-1.96;100.00;93366.56;2104329;28;20493;-81
2022/02/05 03:15:43;;;;;;;9.07;3.78;;;;;;;-1.92;100.00;93362.19;2103059;28;20020;-81
2022/02/05 03:16:49;;;;;;;9.40;2.88;;;;;;;-1.91;100.00;93361.88;2095693;28;20032;-79
2022/02/05 03:17:55;;;;;;;5.43;2.58;;;;;;;-1.94;100.00;93364.38;2088874;28;20028;-80
2022/02/05 03:19:58;;;;;;;5.18;2.67;;;;;;;-2.07;100.00;93361.78;2098885;28;20071;-80
2022/02/05 03:20:59;;;;;;;3.33;2.88;;;;;;;-2.18;100.00;93373.03;2103947;28;20113;-79
2022/02/05 03:22:00;;;;;;;6.13;2.72;;;;;;;-2.16;100.00;93370.84;2108754;28;20024;-81
2022/02/05 03:23:02;;;;;;;7.40;2.80;;;;;;;-2.17;100.00;93369.31;2106700;28;20024;-81
2022/02/05 03:24:04;;;;;;;6.05;2.80;;;;;;;-2.26;100.00;93379.91;2106938;28;20024;-80
2022/02/05 03:25:05;;;;;;;6.32;3.10;;;;;;;-2.25;100.00;93378.81;2106714;28;20081;-81
2022/02/05 03:26:06;;;;;;;6.45;2.60;;;;;;;-2.24;100.00;93380.34;2099302;28;20218;-80
2022/02/05 03:27:07;;;;;;;6.65;2.80;;;;;;;-2.21;100.00;93384.16;2097352;28;20468;-80
2022/02/05 03:28:08;;;;;;;6.90;2.90;;;;;;;-2.23;100.00;93384.50;2089472;28;20028;-82
2022/02/05 03:29:11;;;;;;;5.28;2.70;;;;;;;-2.33;100.00;93380.47;2089482;28;20454;-81
2022/02/05 03:30:13;;;;;;;5.45;2.95;;;;;;;-2.36;100.00;93386.34;2090557;28;20028;-82
2022/02/05 03:31:14;;;;;;;3.28;2.58;;;;;;;-2.38;100.00;93391.13;2098325;28;20039;-81
2022/02/05 03:32:17;;;;;;;6.05;2.60;;;;;;;-2.45;100.00;93382.31;2097472;28;20050;-80
2022/02/05 03:33:18;;;;;;;4.03;2.58;;;;;;;-2.43;100.00;93393.22;2099421;28;20428;-80
2022/02/05 03:34:20;;;;;;;7.72;3.13;;;;;;;-2.39;100.00;93384.38;2114848;27;20733;-82
2022/02/05 03:35:22;;;;;;;4.32;2.53;;;;;;;-2.44;100.00;93394.31;2105176;28;20127;-81
2022/02/05 03:36:23;;;;;;;4.13;2.58;;;;;;;-2.57;100.00;93391.69;2098292;28;20029;-80
2022/02/05 03:37:24;;;;;;;6.35;2.95;;;;;;;-2.56;100.00;93395.06;2106367;28;20388;-80
2022/02/05 03:38:25;;;;;;;6.40;2.97;;;;;;;-2.63;100.00;93394.84;2097956;28;20024;-80
2022/02/05 03:39:26;;;;;;;9.00;3.10;;;;;;;-2.64;100.00;93401.16;2098171;28;20055;-80
2022/02/05 03:40:27;;;;;;;4.72;2.65;;;;;;;-2.61;100.00;93385.56;2090083;28;20021;-80
2022/02/05 03:41:28;;;;;;;5.32;2.58;;;;;;;-2.59;100.00;93390.47;2098256;28;20101;-81
2022/02/05 03:42:29;;;;;;;4.72;2.70;;;;;;;-2.58;100.00;93392.78;2106622;28;20538;-79
2022/02/05 03:43:30;;;;;;;5.15;2.30;;;;;;;-2.71;100.00;93398.31;2098163;28;20123;-79
2022/02/05 03:44:32;;;;;;;6.20;2.60;;;;;;;-2.66;100.00;93398.09;2098347;28;20028;-81
2022/02/05 03:45:33;;;;;;;3.10;2.08;;;;;;;-2.70;100.00;93397.22;2098919;28;20484;-81
2022/02/05 03:46:34;;;;;;;5.15;2.55;;;;;;;-2.55;100.00;93393.97;2098042;28;20119;-81
2022/02/05 03:47:36;;;;;;;5.75;2.42;;;;;;;-2.53;100.00;93397.78;2096607;28;20031;-81
2022/02/05 03:48:37;;;;;;;4.00;2.60;;;;;;;-2.46;100.00;93393.84;2098184;28;20078;-80
2022/02/05 03:49:38;;;;;;;4.65;2.35;;;;;;;-2.56;100.00;93392.44;2089479;28;20094;-80
2022/02/05 03:50:39;;;;;;;5.00;2.25;;;;;;;-2.55;100.00;93396.56;2089925;28;20025;-81
2022/02/05 03:51:40;;;;;;;5.18;2.50;;;;;;;-2.56;100.00;93389.81;2105317;28;20023;-81
2022/02/05 03:52:43;;;;;;;4.00;2.38;;;;;;;-2.61;100.00;93396.03;2097859;28;20765;-80
2022/02/05 03:53:44;;;;;;;5.30;2.90;;;;;;;-2.64;100.00;93401.16;2082019;28;20025;-81
2022/02/05 03:54:45;;;;;;;8.73;2.72;;;;;;;-2.65;100.00;93402.25;2086369;28;20102;-81
2022/02/05 03:55:46;;;;;;;6.10;2.38;;;;;;;-2.62;100.00;93409.44;2098142;28;20028;-81
2022/02/05 03:56:48;;;;;;;3.60;2.38;;;;;;;-2.67;100.00;93413.03;2097921;28;20020;-81
2022/02/05 03:57:49;;;;;;;7.38;2.92;;;;;;;-2.79;100.00;93413.78;2098050;28;20047;-80
2022/02/05 03:58:50;;;;;;;5.20;2.50;;;;;;;-2.80;100.00;93412.25;2103729;28;20046;-80
2022/02/05 03:59:51;;;;;;;5.85;2.92;;;;;;;-2.75;100.00;93413.13;2101706;28;20480;-80
2022/02/05 04:00:51;;;;;;;5.70;2.40;;;;;;;-2.82;100.00;93413.66;2098126;28;20024;-81
2022/02/05 04:01:55;;;;;;;3.58;2.30;;;;;;;-2.78;100.00;93419.78;2089781;28;20045;-82
2022/02/05 04:02:59;;;;;;;5.35;2.50;;;;;;;-2.80;100.00;93414.09;2110820;28;20849;-80
2022/02/05 04:03:59;;;;;;;3.85;2.45;;;;;;;-2.77;100.00;93413.44;2098483;28;20024;-81
2022/02/05 04:05:01;;;;;;;3.83;2.45;;;;;;;-2.81;100.00;93413.34;2097855;28;20450;-82
2022/02/05 04:06:02;;;;;;;3.55;2.38;;;;;;;-2.82;100.00;93418.88;2097922;28;20475;-80
2022/02/05 04:07:04;;;;;;;8.73;2.55;;;;;;;-2.86;100.00;93410.91;2089474;28;20052;-82
2022/02/05 04:08:08;;;;;;;4.18;2.17;;;;;;;-2.87;100.00;93424.31;2089771;28;20036;-81
2022/02/05 04:09:18;;;;;;;4.18;2.40;;;;;;;-2.77;100.00;93416.06;2082367;28;20026;-81
2022/02/05 04:10:25;;;;;;;7.10;2.88;;;;;;;-2.88;100.00;93415.72;2090566;28;20028;-81
2022/02/05 04:16:11;;;;;;;2.70;2.10;;;;;;;-2.85;100.00;93432.63;2105581;28;20420;-80
2022/02/05 04:17:12;;;;;;;7.03;2.65;;;;;;;-2.95;100.00;93436.38;2090934;28;20457;-79
2022/02/05 04:18:13;;;;;;;7.40;2.05;;;;;;;-2.97;100.00;93435.97;2087879;28;20032;-79
2022/02/05 04:19:15;;;;;;;7.43;2.60;;;;;;;-2.97;100.00;93438.59;2097805;28;20028;-80
2022/02/05 04:20:16;;;;;;;5.13;2.40;;;;;;;-3.02;100.00;93438.78;2092308;28;21661;-81
2022/02/05 04:21:18;;;;;;;8.35;3.55;;;;;;;-3.02;100.00;93432.78;2093750;28;20913;-81
2022/02/05 04:22:19;;;;;;;4.50;2.10;;;;;;;-3.00;100.00;93433.22;2097553;28;20024;-79
2022/02/05 04:23:20;;;;;;;4.55;2.25;;;;;;;-3.07;100.00;93441.59;2097723;28;20031;-80
2022/02/05 04:24:21;;;;;;;3.63;2.40;;;;;;;-3.05;100.00;93439.41;2089161;28;20428;-80
2022/02/05 04:25:22;;;;;;;4.15;2.08;;;;;;;-3.14;100.00;93443.97;2089588;28;20037;-80
2022/02/05 04:26:23;;;;;;;5.72;2.20;;;;;;;-3.09;100.00;93446.38;2097783;28;20028;-81
2022/02/05 04:27:24;;;;;;;5.78;2.30;;;;;;;-3.14;100.00;93444.72;2089360;28;20021;-81
2022/02/05 04:28:25;;;;;;;7.45;2.58;;;;;;;-3.11;100.00;93448.56;2073167;28;20022;-80
2022/02/05 04:29:26;;;;;;;5.90;2.10;;;;;;;-3.09;100.00;93443.75;2089241;28;20120;-81
2022/02/05 04:30:27;;;;;;;4.05;2.45;;;;;;;-3.09;100.00;93449.75;2089238;28;20025;-80
2022/02/05 04:31:28;;;;;;;7.72;2.15;;;;;;;-3.22;100.00;93442.19;2081340;28;20519;-81
2022/02/05 04:32:29;;;;;;;2.88;1.90;;;;;;;-3.23;100.00;93446.66;2078373;28;20036;-81
2022/02/05 04:33:30;;;;;;;4.95;2.53;;;;;;;-3.23;100.00;93443.28;2089104;28;20441;-81
2022/02/05 04:34:31;;;;;;;6.30;2.53;;;;;;;-3.24;100.00;93446.97;2097262;28;20031;-81
2022/02/05 04:35:32;;;;;;;6.60;2.38;;;;;;;-3.26;100.00;93446.53;2096536;28;20024;-81
2022/02/05 04:36:35;;;;;;;5.10;2.60;;;;;;;-3.25;100.00;93448.81;2097700;28;20515;-80
2022/02/05 04:37:36;;;;;;;3.90;2.30;;;;;;;-3.20;100.00;93447.88;2085711;28;20110;-80
2022/02/05 04:38:40;;;;;;;6.90;2.45;;;;;;;-3.26;100.00;93451.75;2097616;28;20457;-79
2022/02/05 04:39:48;;;;;;;4.53;2.22;;;;;;;-3.12;100.00;93450.38;2098041;28;20660;-81
2022/02/05 04:40:57;;;;;;;6.43;2.47;;;;;;;-3.15;100.00;93443.19;2090261;28;20069;-80
2022/02/05 04:42:10;;;;;;;6.85;2.28;;;;;;;-3.18;100.00;93450.91;2103882;28;20027;-80
2022/02/05 04:57:27;;;;;;;8.07;2.38;;;;;;;-3.43;100.00;93463.09;2097557;28;20032;-81
2022/02/05 05:01:00;;;;;;;3.63;2.40;;;;;;;-3.28;100.00;93473.00;2099474;28;20097;-83
2022/02/05 05:06:09;;;;;;;5.93;2.28;;;;;;;-3.50;100.00;93474.06;2090424;28;20032;-83
2022/02/05 05:08:40;;;;;;;4.65;1.65;;;;;;;-3.49;100.00;93480.06;2090801;28;20096;-82
2022/02/05 05:10:02;;;;;;;4.50;1.85;;;;;;;-3.52;100.00;93473.59;2089129;28;20167;-83
2022/02/05 05:15:19;;;;;;;3.63;1.95;;;;;;;-3.56;100.00;93477.94;2089847;28;20132;-83
2022/02/05 05:19:55;;;;;;;5.00;2.23;;;;;;;-3.43;100.00;93490.00;2099681;28;20062;-82
2022/02/05 05:20:56;;;;;;;4.85;1.90;;;;;;;-3.56;100.00;93494.41;2097240;28;20444;-82
2022/02/05 05:21:59;;;;;;;4.72;1.77;;;;;;;-3.65;100.00;93485.06;2097108;28;20032;-81
2022/02/05 05:23:00;;;;;;;3.55;1.80;;;;;;;-3.63;100.00;93483.69;2081593;28;20021;-81
2022/02/05 05:24:01;;;;;;;5.25;1.98;;;;;;;-3.72;100.00;93479.59;2089282;28;20049;-82
2022/02/05 05:25:03;;;;;;;8.60;2.17;;;;;;;-3.79;100.00;93485.31;2097450;28;20075;-81
2022/02/05 05:26:05;;;;;;;3.78;1.98;;;;;;;-3.81;100.00;93483.03;2104608;28;20031;-82
2022/02/05 05:27:06;;;;;;;3.35;2.10;;;;;;;-3.89;100.00;93485.69;2104937;28;20432;-83
2022/02/05 05:28:06;;;;;;;4.38;2.05;;;;;;;-3.86;100.00;93485.81;2105211;28;20034;-80
2022/02/05 05:29:07;;;;;;;5.10;2.30;;;;;;;-3.83;100.00;93485.16;2088745;28;20033;-81
2022/02/05 05:30:10;;;;;;;4.45;2.28;;;;;;;-3.82;100.00;93486.72;2088683;28;20522;-83
2022/02/05 05:31:10;;;;;;;2.75;1.90;;;;;;;-3.88;100.00;93489.81;2081979;28;20037;-82
2022/02/05 05:32:11;;;;;;;4.70;2.50;;;;;;;-3.95;100.00;93490.31;2088688;28;20017;-82
2022/02/05 05:33:12;;;;;;;7.03;2.17;;;;;;;-3.89;100.00;93488.28;2080495;28;20033;-82
2022/02/05 05:34:14;;;;;;;3.85;1.92;;;;;;;-3.90;100.00;93487.53;2080809;28;20033;-83
2022/02/05 05:35:15;;;;;;;3.83;2.30;;;;;;;-3.89;100.00;93503.97;2094119;28;20069;-82
2022/02/05 05:36:16;;;;;;;3.53;2.35;;;;;;;-3.93;100.00;93495.22;2089002;28;20028;-82
2022/02/05 05:37:19;;;;;;;4.28;2.22;;;;;;;-3.93;100.00;93501.19;2088786;28;20032;-83
2022/02/05 05:38:21;;;;;;;4.35;2.13;;;;;;;-3.96;100.00;93493.22;2097389;28;20026;-82
2022/02/05 05:39:22;;;;;;;4.43;2.65;;;;;;;-3.93;100.00;93495.22;2097362;28;20024;-84
2022/02/05 05:40:22;;;;;;;6.53;2.22;;;;;;;-3.94;100.00;93501.53;2095008;28;20121;-84
2022/02/05 05:41:23;;;;;;;3.65;2.17;;;;;;;-3.97;100.00;93499.53;2089345;28;20029;-83
2022/02/05 05:42:33;;;;;;;8.13;2.47;;;;;;;-3.91;100.00;93506.88;2088129;28;20029;-82
2022/02/05 05:43:48;;;;;;;4.18;1.95;;;;;;;-3.90;100.00;93505.81;2081471;28;20025;-83
2022/02/05 05:50:57;;;;;;;3.15;1.98;;;;;;;-4.03;100.00;93514.63;2084856;28;20154;-83
2022/02/05 05:51:26;;;;;;;4.32;2.00;;;;;;;-4.09;100.00;93513.25;2096320;28;20029;-83
2022/02/05 05:52:27;;;;;;;2.78;2.03;;;;;;;-3.91;100.00;93513.94;2088871;28;20032;-82
2022/02/05 05:53:28;;;;;;;3.00;1.83;;;;;;;-3.99;100.00;93506.94;2097252;28;20082;-82
2022/02/05 05:54:29;;;;;;;2.55;2.20;;;;;;;-3.95;100.00;93513.03;2088780;28;20021;-83
2022/02/05 05:55:30;;;;;;;4.85;2.30;;;;;;;-3.95;100.00;93507.81;2072685;28;20037;-83
2022/02/05 05:56:33;;;;;;;5.38;1.90;;;;;;;-3.94;100.00;93507.50;2080675;28;20029;-84
2022/02/05 05:57:34;;;;;;;2.55;2.00;;;;;;;-3.88;100.00;93508.84;2097427;28;20024;-82
2022/02/05 05:58:35;;;;;;;6.60;2.10;;;;;;;-3.84;100.00;93514.97;2089184;28;20133;-83
2022/02/05 05:59:38;;;;;;;5.32;2.38;;;;;;;-3.88;100.00;93514.06;2080784;28;20052;-83
2022/02/05 06:00:40;;;;;;;3.03;2.30;;;;;;;-3.94;100.00;93511.97;2081259;28;20017;-82
2022/02/05 06:01:41;;;;;;;3.22;2.00;;;;;;;-4.09;100.00;93508.03;2082523;28;20134;-83
2022/02/05 06:02:42;;;;;;;4.82;1.95;;;;;;;-4.07;100.00;93517.09;2080798;28;20083;-83
2022/02/05 06:03:43;;;;;;;4.28;1.95;;;;;;;-4.15;100.00;93511.91;2088542;28;20057;-84
2022/02/05 06:04:44;;;;;;;3.17;1.80;;;;;;;-4.20;100.00;93517.28;2093362;28;20028;-83
2022/02/05 06:05:45;;;;;;;3.90;1.92;;;;;;;-4.24;100.00;93514.53;2088847;28;20033;-83
2022/02/05 06:06:47;;;;;;;3.35;1.83;;;;;;;-4.25;100.00;93513.00;2088009;28;20548;-83
2022/02/05 06:07:48;;;;;;;3.80;2.10;;;;;;;-4.09;100.00;93513.25;2080619;28;20052;-82
2022/02/05 06:08:51;;;;;;;4.68;2.10;;;;;;;-4.12;100.00;93517.25;2088555;28;20028;-83
2022/02/05 06:09:51;;;;;;;2.88;2.08;;;;;;;-4.11;100.00;93518.78;2088947;28;20809;-82
2022/02/05 06:10:52;;;;;;;4.65;1.60;;;;;;;-4.05;100.00;93514.91;2087302;28;20053;-83
2022/02/05 06:11:53;;;;;;;5.85;2.20;;;;;;;-4.09;100.00;93524.44;2080414;28;20044;-82
2022/02/05 06:12:54;;;;;;;4.95;2.08;;;;;;;-4.07;100.00;93517.09;2094799;28;20087;-84
2022/02/05 06:13:55;;;;;;;3.17;2.45;;;;;;;-4.14;100.00;93526.47;2105311;28;20876;-82
2022/02/05 06:14:58;;;;;;;3.38;2.00;;;;;;;-4.20;100.00;93527.72;2097128;28;20032;-82
2022/02/05 06:15:59;;;;;;;5.72;1.90;;;;;;;-4.16;100.00;93520.81;2089558;28;20020;-84
2022/02/05 06:17:07;;;;;;;6.78;3.03;;;;;;;-4.10;100.00;93533.38;2087799;28;20070;-83
2022/02/05 06:18:09;;;;;;;3.72;1.85;;;;;;;-4.06;100.00;93533.50;2097151;28;20028;-82
2022/02/05 06:19:10;;;;;;;3.33;1.80;;;;;;;-4.15;100.00;93532.78;2096927;28;20107;-82
2022/02/05 06:20:11;;;;;;;3.65;1.98;;;;;;;-4.16;100.00;93529.41;2088781;28;20017;-82
2022/02/05 06:21:12;;;;;;;3.72;1.90;;;;;;;-4.24;100.00;93538.03;2097137;28;20353;-82
2022/02/05 06:22:13;;;;;;;3.80;2.03;;;;;;;-4.25;100.00;93530.53;2096776;28;20028;-83
2022/02/05 06:23:14;;;;;;;4.72;2.17;;;;;;;-4.24;100.00;93538.03;2080845;28;20034;-83
2022/02/05 06:24:15;;;;;;;2.60;2.05;;;;;;;-4.22;100.00;93533.25;2080759;28;20034;-83
2022/02/05 06:25:16;;;;;;;2.10;1.83;;;;;;;-4.21;100.00;93544.47;2088612;28;20104;-83
2022/02/05 06:26:17;;;;;;;1.98;1.70;;;;;;;-4.28;100.00;93541.56;2088927;28;20028;-81
2022/02/05 06:27:18;;;;;;;3.53;2.28;;;;;;;-4.29;100.00;93542.66;2080683;28;20034;-83
2022/02/05 06:28:19;;;;;;;2.83;2.13;;;;;;;-4.19;100.00;93545.69;2099886;28;20048;-84
2022/02/05 06:29:20;;;;;;;4.95;2.05;;;;;;;-4.18;100.00;93542.00;2097033;28;20028;-83
2022/02/05 06:30:21;;;;;;;2.28;2.05;;;;;;;-4.07;100.00;93537.22;2100937;28;20062;-83
2022/02/05 06:31:22;;;;;;;5.03;2.70;;;;;;;-4.21;100.00;93542.63;2104644;28;20020;-82
2022/02/05 06:32:23;;;;;;;3.13;1.98;;;;;;;-4.14;100.00;93539.53;2095640;28;20056;-83
2022/02/05 06:33:24;;;;;;;3.85;2.17;;;;;;;-4.28;100.00;93546.78;2088458;28;20723;-82
2022/02/05 06:34:25;;;;;;;3.20;1.70;;;;;;;-4.13;100.00;93549.63;2088570;28;20082;-84
2022/02/05 06:35:26;;;;;;;2.33;1.65;;;;;;;-4.24;100.00;93548.47;2087317;28;20025;-81
2022/02/05 06:36:27;;;;;;;3.67;2.00;;;;;;;-4.20;100.00;93551.22;2088643;28;20115;-82
2022/02/05 06:37:27;;;;;;;3.35;2.08;;;;;;;-4.19;100.00;93557.97;2088728;28;20428;-83
2022/02/05 06:38:28;;;;;;;3.80;1.55;;;;;;;-4.21;100.00;93555.69;2088811;28;20025;-82
2022/02/05 06:39:29;;;;;;;3.28;2.00;;;;;;;-4.16;100.00;93559.97;2088535;28;20028;-81
2022/02/05 06:40:48;;;;;;;2.20;1.50;;;;;;;-4.14;100.00;93557.78;2096942;28;20380;-82
2022/02/05 06:41:50;;;;;;;3.58;1.80;;;;;;;-4.12;100.00;93558.25;2101739;28;20040;-84
2022/02/05 06:42:51;;;;;;;4.32;2.22;;;;;;;-4.27;100.00;93563.97;2096783;28;20526;-83
2022/02/05 06:43:52;;;;;;;3.33;1.55;;;;;;;-4.43;100.00;93559.25;2105674;28;20054;-84
2022/02/05 06:44:53;;;;;;;8.38;2.28;;;;;;;-4.47;100.00;93560.97;2096930;28;20346;-83
2022/02/05 06:45:54;;;;;;;3.65;2.22;;;;;;;-4.39;100.00;93557.56;2088464;28;20029;-83
2022/02/05 06:46:55;;;;;;;4.22;1.60;;;;;;;-4.37;100.00;93557.25;2088705;28;20024;-83
2022/02/05 06:47:55;;;;;;;5.40;1.48;;;;;;;-4.40;100.00;93556.00;2090818;28;20032;-82
2022/02/05 06:48:56;;;;;;;5.45;1.50;;;;;;;-4.38;100.00;93558.34;2097132;28;20107;-85
2022/02/05 06:49:57;;;;;;;7.28;2.15;;;;;;;-4.38;100.00;93558.34;2097254;28;20031;-80
2022/02/05 06:50:58;;;;;;;4.38;1.52;;;;;;;-4.38;100.00;93560.94;2096823;28;20051;-85
2022/02/05 06:52:00;;;;;;;6.15;1.70;;;;;;;-4.40;100.00;93563.06;2085741;28;20029;-84
2022/02/05 06:53:02;;;;;;;2.30;1.23;;;;;;;-4.39;100.00;93567.22;2089369;28;20044;-82
2022/02/05 06:54:03;;;;;;;2.47;1.38;;;;;;;-4.36;100.00;93562.16;2093031;28;20021;-85
2022/02/05 06:55:05;;;;;;;3.78;1.55;;;;;;;-4.38;100.00;93563.56;2089058;28;20401;-82
2022/02/05 06:56:06;;;;;;;2.65;1.73;;;;;;;-4.24;100.00;93568.56;2088921;28;20176;-82